createdAt,value
2023-03-03T00:02:10.146Z,1.03
2023-03-03T00:05:18.739Z,1.10
2023-03-03T00:08:25.136Z,1.14
2023-03-03T00:11:31.504Z,1.20
2023-03-03T00:14:36.068Z,1.23
2023-03-03T00:17:42.428Z,1.20
2023-03-03T00:20:49.731Z,1.28
2023-03-03T00:23:57.081Z,1.33
2023-03-03T00:27:18.501Z,1.41
2023-03-03T00:30:27.986Z,1.45
2023-03-03T00:33:38.823Z,1.53
2023-03-03T00:36:45.775Z,1.59
2023-03-03T00:39:52.170Z,1.58
2023-03-03T00:42:59.699Z,1.59
2023-03-03T00:46:06.475Z,1.58
2023-03-03T00:49:27.885Z,1.56
2023-03-03T00:52:39.730Z,1.55
2023-03-03T00:55:47.018Z,1.55
2023-03-03T00:58:53.838Z,1.46
2023-03-03T01:02:00.252Z,1.33
2023-03-03T01:05:07.538Z,1.22
2023-03-03T01:08:14.123Z,1.24
2023-03-03T01:11:24.563Z,1.26
2023-03-03T01:14:30.938Z,1.21
2023-03-03T01:17:35.916Z,1.10
2023-03-03T01:20:42.545Z,1.07
2023-03-03T01:23:49.045Z,1.09
2023-03-03T01:26:55.398Z,1.08
2023-03-03T01:30:00.175Z,1.04
2023-03-03T01:33:06.787Z,1.02
2023-03-03T01:36:13.258Z,1.02
2023-03-03T01:39:19.711Z,1.04
2023-03-03T01:42:29.287Z,1.08
2023-03-03T01:46:12.261Z,1.12
2023-03-03T01:49:22.790Z,1.16
2023-03-03T01:52:33.714Z,1.19
2023-03-03T01:55:42.288Z,1.16
2023-03-03T01:58:51.473Z,1.06
2023-03-03T02:01:57.891Z,1.04
2023-03-03T02:05:04.883Z,1.07
2023-03-03T02:08:16.625Z,1.08
2023-03-03T02:11:24.513Z,1.09
2023-03-03T02:14:31.047Z,1.09
2023-03-03T02:17:37.222Z,1.11
2023-03-03T02:20:53.849Z,1.14
2023-03-03T02:24:08.798Z,1.17
2023-03-03T02:27:15.318Z,1.20
2023-03-03T02:30:23.225Z,1.21
2023-03-03T02:33:30.624Z,1.19
2023-03-03T02:36:38.866Z,1.18
2023-03-03T02:39:45.369Z,1.12
2023-03-03T02:42:54.118Z,1.06
2023-03-03T02:46:00.484Z,1.02
2023-03-03T02:49:06.184Z,1.01
2023-03-03T02:52:15.069Z,0.94
2023-03-03T02:55:21.427Z,0.93
2023-03-03T02:58:25.937Z,0.90
2023-03-03T03:01:37.153Z,0.85
2023-03-03T03:04:43.534Z,0.83
2023-03-03T03:07:48.105Z,0.81
2023-03-03T03:10:54.417Z,0.76
2023-03-03T03:13:59.046Z,0.77
2023-03-03T03:17:05.821Z,0.76
2023-03-03T03:20:13.731Z,0.80
2023-03-03T03:23:21.929Z,0.83
2023-03-03T03:26:28.816Z,0.85
2023-03-03T03:29:35.027Z,0.85
2023-03-03T03:32:39.555Z,0.86
2023-03-03T03:35:47.823Z,0.83
2023-03-03T03:38:54.018Z,0.85
2023-03-03T03:42:00.200Z,0.86
2023-03-03T03:45:04.950Z,0.85
2023-03-03T03:48:11.517Z,0.80
2023-03-03T03:51:17.752Z,0.80
2023-03-03T03:54:22.211Z,0.68
2023-03-03T03:57:28.522Z,0.02
2023-03-03T04:00:33.318Z,-0.61
2023-03-03T04:03:39.618Z,-1.08
2023-03-03T04:06:44.136Z,-1.45
2023-03-03T04:09:51.135Z,-1.77
2023-03-03T04:12:57.375Z,-1.98
2023-03-03T04:16:01.957Z,-1.87
2023-03-03T04:19:08.216Z,-1.67
2023-03-03T04:22:12.896Z,-1.31
2023-03-03T04:25:20.811Z,-1.05
2023-03-03T04:28:27.331Z,-0.83
2023-03-03T04:31:33.724Z,-0.66
2023-03-03T04:34:39.970Z,-0.52
2023-03-03T04:37:44.400Z,-0.39
2023-03-03T04:40:51.099Z,-0.31
2023-03-03T04:43:57.501Z,-0.23
2023-03-03T04:47:03.750Z,-0.20
2023-03-03T04:50:09.598Z,-0.20
2023-03-03T04:53:14.207Z,-0.21
2023-03-03T04:56:20.545Z,-0.20
2023-03-03T04:59:26.774Z,-0.11
2023-03-03T05:02:31.508Z,-0.06
2023-03-03T05:05:37.758Z,-0.03
2023-03-03T05:08:43.365Z,0.03
2023-03-03T05:11:49.579Z,0.04
2023-03-03T05:14:54.056Z,0.09
2023-03-03T05:18:00.313Z,0.10
2023-03-03T05:21:05.086Z,0.14
2023-03-03T05:24:12.721Z,0.16
2023-03-03T05:27:18.854Z,0.21
2023-03-03T05:30:25.219Z,0.22
2023-03-03T05:33:31.459Z,0.21
2023-03-03T05:36:35.971Z,0.21
2023-03-03T05:39:44.699Z,0.22
2023-03-03T05:42:51.652Z,0.26
2023-03-03T05:46:01.283Z,0.27
2023-03-03T05:49:07.669Z,0.29
2023-03-03T05:52:12.453Z,0.31
2023-03-03T05:55:19.012Z,0.26
2023-03-03T05:58:25.313Z,0.26
2023-03-03T06:01:31.576Z,0.25
2023-03-03T06:04:36.072Z,0.24
2023-03-03T06:07:42.536Z,0.24
2023-03-03T06:10:48.816Z,0.30
2023-03-03T06:13:53.394Z,0.34
2023-03-03T06:16:59.564Z,0.37
2023-03-03T06:20:06.836Z,0.44
2023-03-03T06:23:13.012Z,0.52
2023-03-03T06:26:19.262Z,0.60
2023-03-03T06:29:23.793Z,0.67
2023-03-03T06:32:29.965Z,0.71
2023-03-03T06:35:34.602Z,0.80
2023-03-03T06:38:40.949Z,0.86
2023-03-03T06:41:45.465Z,0.95
2023-03-03T06:44:51.938Z,1.02
2023-03-03T06:47:58.157Z,1.13
2023-03-03T06:51:03.898Z,1.22
2023-03-03T06:54:15.344Z,1.26
2023-03-03T06:57:27.533Z,1.36
2023-03-03T07:00:33.779Z,1.45
2023-03-03T07:03:38.289Z,1.53
2023-03-03T07:06:44.575Z,1.59
2023-03-03T07:09:50.313Z,1.71
2023-03-03T07:12:59.128Z,1.79
2023-03-03T07:16:13.061Z,1.91
2023-03-03T07:19:25.036Z,2.02
2023-03-03T07:22:31.909Z,2.12
2023-03-03T07:25:39.021Z,2.22
2023-03-03T07:28:57.269Z,2.34
2023-03-03T07:32:11.223Z,2.47
2023-03-03T07:35:37.621Z,2.56
2023-03-03T07:38:50.673Z,2.66
2023-03-03T07:42:02.127Z,2.78
2023-03-03T07:45:26.180Z,2.91
2023-03-03T07:48:37.216Z,3.03
2023-03-03T07:51:43.639Z,3.12
2023-03-03T07:54:50.247Z,3.23
2023-03-03T07:57:59.289Z,3.37
2023-03-03T08:01:30.420Z,3.49
2023-03-03T08:04:42.317Z,3.65
2023-03-03T08:07:50.971Z,3.79
2023-03-03T08:10:58.427Z,3.93
2023-03-03T08:14:10.950Z,4.05
2023-03-03T08:17:23.365Z,4.13
2023-03-03T08:20:50.085Z,4.25
2023-03-03T08:23:56.589Z,4.42
2023-03-03T08:27:02.843Z,4.51
2023-03-03T08:30:12.247Z,4.59
2023-03-03T08:33:19.322Z,4.72
2023-03-03T08:36:25.626Z,4.81
2023-03-03T08:39:30.171Z,4.87
2023-03-03T08:42:36.309Z,4.96
2023-03-03T08:45:42.619Z,5.12
2023-03-03T08:48:47.124Z,5.28
2023-03-03T08:51:54.844Z,5.34
2023-03-03T08:55:01.184Z,5.37
2023-03-03T08:58:05.708Z,5.45
2023-03-03T09:01:11.965Z,5.49
2023-03-03T09:04:18.327Z,5.65
2023-03-03T09:07:23.169Z,5.83
2023-03-03T09:10:32.163Z,5.96
2023-03-03T09:13:38.609Z,6.13
2023-03-03T09:16:49.120Z,6.27
2023-03-03T09:19:57.266Z,6.40
2023-03-03T09:23:26.820Z,6.49
2023-03-03T09:26:44.548Z,6.53
2023-03-03T09:29:50.778Z,6.49
2023-03-03T09:32:59.486Z,6.51
2023-03-03T09:36:24.881Z,6.57
2023-03-03T09:39:37.032Z,6.64
2023-03-03T09:43:00.791Z,6.69
2023-03-03T09:46:15.991Z,6.79
2023-03-03T09:49:33.246Z,6.62
2023-03-03T09:52:46.088Z,6.04
2023-03-03T09:55:58.707Z,5.65
2023-03-03T09:59:25.220Z,5.41
2023-03-03T10:02:47.196Z,5.42
2023-03-03T10:06:01.802Z,5.93
2023-03-03T10:09:38.568Z,6.35
2023-03-03T10:12:53.816Z,6.76
2023-03-03T10:20:40.419Z,7.44
2023-03-03T10:24:01.416Z,7.53
2023-03-03T10:27:26.238Z,7.09
2023-03-03T10:30:54.716Z,6.65
2023-03-03T10:34:21.661Z,6.32
2023-03-03T10:37:34.889Z,6.08
2023-03-03T10:40:48.198Z,6.02
2023-03-03T10:44:10.212Z,6.50
2023-03-03T10:47:33.361Z,6.98
2023-03-03T10:50:52.044Z,7.32
2023-03-03T10:54:11.665Z,7.59
2023-03-03T10:57:25.780Z,7.59
2023-03-03T11:00:36.343Z,6.96
2023-03-03T11:03:58.906Z,6.46
2023-03-03T11:07:13.178Z,6.14
2023-03-03T11:10:37.047Z,5.94
2023-03-03T11:13:51.085Z,5.92
2023-03-03T11:17:04.560Z,6.42
2023-03-03T11:20:21.981Z,6.86
2023-03-03T11:23:58.512Z,7.15
2023-03-03T11:27:22.398Z,7.26
2023-03-03T11:30:41.088Z,6.84
2023-03-03T11:33:52.144Z,6.50
2023-03-03T11:37:03.668Z,6.26
2023-03-03T11:40:19.749Z,6.04
2023-03-03T11:43:37.015Z,5.87
2023-03-03T11:46:49.965Z,5.72
2023-03-03T11:50:02.383Z,5.61
2023-03-03T11:53:26.197Z,5.65
2023-03-03T11:56:41.557Z,6.24
2023-03-03T11:59:58.245Z,6.73
2023-03-03T12:03:18.640Z,7.07
2023-03-03T12:06:31.939Z,7.24
2023-03-03T12:09:47.141Z,6.87
2023-03-03T12:13:03.282Z,6.51
2023-03-03T12:16:13.317Z,6.29
2023-03-03T12:19:40.330Z,6.16
2023-03-03T12:23:06.441Z,6.04
2023-03-03T12:26:17.915Z,5.94
2023-03-03T12:29:32.579Z,6.01
2023-03-03T12:32:56.832Z,6.54
2023-03-03T12:36:15.248Z,7.06
2023-03-03T12:39:35.360Z,7.45
2023-03-03T12:43:00.996Z,7.67
2023-03-03T12:46:14.893Z,7.27
2023-03-03T12:49:21.671Z,6.85
2023-03-03T12:52:39.043Z,6.59
2023-03-03T12:55:54.437Z,6.38
2023-03-03T12:59:06.113Z,6.21
2023-03-03T13:02:44.594Z,6.06
2023-03-03T13:05:58.723Z,6.06
2023-03-03T13:09:19.180Z,6.57
2023-03-03T13:12:45.719Z,7.02
2023-03-03T13:16:03.056Z,7.36
2023-03-03T13:19:17.173Z,7.62
2023-03-03T13:22:37.311Z,7.85
2023-03-03T13:25:56.627Z,7.73
2023-03-03T13:29:11.215Z,7.24
2023-03-03T13:32:22.375Z,6.90
2023-03-03T13:35:45.976Z,6.63
2023-03-03T13:38:54.839Z,6.41
2023-03-03T13:42:04.543Z,6.22
2023-03-03T13:45:22.993Z,6.03
2023-03-03T13:48:43.271Z,5.78
2023-03-03T13:51:54.784Z,5.66
2023-03-03T13:55:22.648Z,6.05
2023-03-03T13:58:38.487Z,6.40
2023-03-03T14:01:57.511Z,6.56
2023-03-03T14:05:10.436Z,6.59
2023-03-03T14:08:26.633Z,6.14
2023-03-03T14:11:34.949Z,5.69
2023-03-03T14:14:53.258Z,5.38
2023-03-03T14:18:15.124Z,5.10
2023-03-03T14:21:27.636Z,4.85
2023-03-03T14:24:36.513Z,4.71
2023-03-03T14:27:55.946Z,5.08
2023-03-03T14:31:16.360Z,5.44
2023-03-03T14:34:40.060Z,5.70
2023-03-03T14:37:48.038Z,5.82
2023-03-03T14:41:14.322Z,5.94
2023-03-03T14:44:29.130Z,6.09
2023-03-03T14:47:39.592Z,6.20
2023-03-03T14:50:49.949Z,6.18
2023-03-03T14:53:57.473Z,5.67
2023-03-03T14:57:08.693Z,5.18
2023-03-03T15:00:35.266Z,4.81
2023-03-03T15:03:49.215Z,4.49
2023-03-03T15:06:56.659Z,4.37
2023-03-03T15:10:03.695Z,4.72
2023-03-03T15:13:36.705Z,5.04
2023-03-03T15:16:45.123Z,5.17
2023-03-03T15:20:06.334Z,5.27
2023-03-03T15:23:37.489Z,5.33
2023-03-03T15:26:48.593Z,5.41
2023-03-03T15:30:06.788Z,5.48
2023-03-03T15:33:23.152Z,5.54
2023-03-03T15:36:38.094Z,5.57
2023-03-03T15:39:51.678Z,5.58
2023-03-03T15:43:10.588Z,5.58
2023-03-03T15:46:28.922Z,5.52
2023-03-03T15:50:06.134Z,5.42
2023-03-03T15:53:28.805Z,5.39
2023-03-03T15:56:43.804Z,5.42
2023-03-03T16:00:10.566Z,5.46
2023-03-03T16:03:18.741Z,5.49
2023-03-03T16:06:31.319Z,5.53
2023-03-03T16:09:53.979Z,5.59
2023-03-03T16:13:11.918Z,5.63
2023-03-03T16:16:28.577Z,5.66
2023-03-03T16:19:45.413Z,5.70
2023-03-03T16:23:10.206Z,5.73
2023-03-03T16:26:28.748Z,5.54
2023-03-03T16:29:46.506Z,4.85
2023-03-03T16:32:56.290Z,4.27
2023-03-03T16:36:10.565Z,3.84
2023-03-03T16:39:23.349Z,3.50
2023-03-03T16:42:32.540Z,3.36
2023-03-03T16:45:40.297Z,3.73
2023-03-03T16:48:54.731Z,4.06
2023-03-03T16:52:08.983Z,4.28
2023-03-03T16:55:19.677Z,4.45
2023-03-03T16:58:35.850Z,4.56
2023-03-03T17:01:47.645Z,4.63
2023-03-03T17:05:03.220Z,4.70
2023-03-03T17:08:27.103Z,4.78
2023-03-03T17:11:47.543Z,4.85
2023-03-03T17:15:07.480Z,4.90
2023-03-03T17:18:22.365Z,4.97
2023-03-03T17:21:43.423Z,5.07
2023-03-03T17:25:03.223Z,5.08
2023-03-03T17:28:20.157Z,5.11
2023-03-03T17:31:36.080Z,5.15
2023-03-03T17:34:55.631Z,5.13
2023-03-03T17:38:08.151Z,5.15
2023-03-03T17:41:22.754Z,5.16
2023-03-03T17:44:37.437Z,5.18
2023-03-03T17:47:54.908Z,5.19
2023-03-03T17:51:17.550Z,5.19
2023-03-03T17:54:55.742Z,5.15
2023-03-03T17:58:26.527Z,5.15
2023-03-03T18:02:00.533Z,5.14
2023-03-03T18:05:40.385Z,5.11
2023-03-03T18:09:14.676Z,5.03
2023-03-03T18:12:30.958Z,4.98
2023-03-03T18:16:10.287Z,4.96
2023-03-03T18:19:33.542Z,4.98
2023-03-03T18:22:45.818Z,4.98
2023-03-03T18:25:59.992Z,5.02
2023-03-03T18:29:28.089Z,5.07
2023-03-03T18:32:44.633Z,5.08
2023-03-03T18:35:51.263Z,5.10
2023-03-03T18:38:58.961Z,5.03
2023-03-03T18:42:13.716Z,4.47
2023-03-03T18:45:52.175Z,3.89
2023-03-03T18:49:02.682Z,3.41
2023-03-03T18:52:22.083Z,3.17
2023-03-03T18:55:29.613Z,3.47
2023-03-03T18:58:43.681Z,3.79
2023-03-03T19:01:51.996Z,4.05
2023-03-03T19:05:10.287Z,4.18
2023-03-03T19:08:25.926Z,4.24
2023-03-03T19:11:42.477Z,4.30
2023-03-03T19:14:49.472Z,4.37
2023-03-03T19:17:59.441Z,4.47
2023-03-03T19:21:08.984Z,4.56
2023-03-03T19:24:35.674Z,4.63
2023-03-03T19:27:49.432Z,4.66
2023-03-03T19:31:00.560Z,4.67
2023-03-03T19:34:13.334Z,4.70
2023-03-03T19:37:34.684Z,4.75
2023-03-03T19:40:50.838Z,4.81
2023-03-03T19:44:08.803Z,4.83
2023-03-03T19:47:25.173Z,4.84
2023-03-03T19:50:45.296Z,4.84
2023-03-03T19:54:00.492Z,4.82
2023-03-03T19:57:12.886Z,4.79
2023-03-03T20:00:27.202Z,4.81
2023-03-03T20:03:50.766Z,4.84
2023-03-03T20:07:05.422Z,4.89
2023-03-03T20:10:36.802Z,4.91
2023-03-03T20:13:58.036Z,4.93
2023-03-03T20:17:27.632Z,4.94
2023-03-03T20:20:54.932Z,4.92
2023-03-03T20:24:16.761Z,4.88
2023-03-03T20:27:26.167Z,4.83
2023-03-03T20:30:49.051Z,4.81
2023-03-03T20:34:11.130Z,4.82
2023-03-03T20:37:26.391Z,4.82
2023-03-03T20:40:40.106Z,4.83
2023-03-03T20:44:01.442Z,4.82
2023-03-03T20:47:16.232Z,4.82
2023-03-03T20:50:30.513Z,4.83
2023-03-03T20:53:46.395Z,4.84
2023-03-03T20:56:58.389Z,4.85
2023-03-03T21:00:09.516Z,4.82
2023-03-03T21:03:22.405Z,4.80
2023-03-03T21:06:40.833Z,4.78
2023-03-03T21:09:47.426Z,4.74
2023-03-03T21:12:54.390Z,4.72
2023-03-03T21:16:03.826Z,4.70
2023-03-03T21:19:13.133Z,4.70
2023-03-03T21:22:19.485Z,4.70
2023-03-03T21:25:37.400Z,4.72
2023-03-03T21:29:03.619Z,4.68
2023-03-03T21:32:11.080Z,4.71
2023-03-03T21:35:19.645Z,4.71
2023-03-03T21:38:37.422Z,4.68
2023-03-03T21:41:56.376Z,4.63
2023-03-03T21:45:13.562Z,4.60
2023-03-03T21:48:19.806Z,4.61
2023-03-03T21:51:28.968Z,4.64
2023-03-03T21:54:34.822Z,4.63
2023-03-03T21:57:41.069Z,4.64
2023-03-03T22:00:47.692Z,4.66
2023-03-03T22:03:53.885Z,4.64
2023-03-03T22:07:00.317Z,4.61
2023-03-03T22:10:09.997Z,4.60
2023-03-03T22:13:16.419Z,4.54
2023-03-03T22:16:21.303Z,3.96
2023-03-03T22:19:27.748Z,3.32
2023-03-03T22:22:33.948Z,2.83
2023-03-03T22:25:40.309Z,2.58
2023-03-03T22:28:46.542Z,2.88
2023-03-03T22:31:52.617Z,3.21
2023-03-03T22:34:57.661Z,3.43
2023-03-03T22:38:03.862Z,3.56
2023-03-03T22:41:10.352Z,3.72
2023-03-03T22:44:16.534Z,3.83
2023-03-03T22:47:22.857Z,3.91
2023-03-03T22:50:27.407Z,4.01
2023-03-03T22:53:33.870Z,4.07
2023-03-03T22:56:40.203Z,4.16
2023-03-03T22:59:44.657Z,4.18
2023-03-03T23:02:50.867Z,4.18
2023-03-03T23:05:57.153Z,4.23
2023-03-03T23:09:03.336Z,4.26
2023-03-03T23:12:10.454Z,4.29
2023-03-03T23:15:16.886Z,4.36
2023-03-03T23:18:23.206Z,4.42
2023-03-03T23:21:27.763Z,4.48
2023-03-03T23:24:34.192Z,4.49
2023-03-03T23:27:40.782Z,4.51
2023-03-03T23:30:47.007Z,4.48
2023-03-03T23:33:53.233Z,4.48
2023-03-03T23:36:59.477Z,4.49
2023-03-03T23:40:06.794Z,4.49
2023-03-03T23:43:13.154Z,4.48
2023-03-03T23:46:17.664Z,4.45
2023-03-03T23:49:23.977Z,4.41
2023-03-03T23:52:28.529Z,4.39
2023-03-03T23:55:36.232Z,4.36
2023-03-03T23:58:42.470Z,4.38
